createdAt,value
2024-04-30T00:00:16.064Z,25.58
2024-04-30T00:01:16.191Z,25.56
2024-04-30T00:02:16.271Z,25.63
2024-04-30T00:03:16.371Z,25.59
2024-04-30T00:04:16.497Z,25.51
2024-04-30T00:05:16.573Z,25.39
2024-04-30T00:06:16.691Z,25.38
2024-04-30T00:07:16.752Z,25.32
2024-04-30T00:08:16.850Z,25.32
2024-04-30T00:09:17.035Z,25.47
2024-04-30T00:10:17.095Z,25.44
2024-04-30T00:11:17.172Z,25.38
2024-04-30T00:12:17.255Z,25.13
2024-04-30T00:13:17.431Z,25.03
2024-04-30T00:14:17.463Z,25.05
2024-04-30T00:15:18.186Z,25.33
2024-04-30T00:16:17.675Z,25.40
2024-04-30T00:17:17.738Z,25.29
2024-04-30T00:18:17.837Z,25.19
2024-04-30T00:19:18.007Z,25.16
2024-04-30T00:20:18.067Z,25.13
2024-04-30T00:21:18.130Z,25.13
2024-04-30T00:22:18.282Z,25.14
2024-04-30T00:23:18.348Z,25.14
2024-04-30T00:24:18.431Z,25.14
2024-04-30T00:25:18.600Z,25.14
2024-04-30T00:26:18.620Z,25.11
2024-04-30T00:27:18.799Z,25.03
2024-04-30T00:28:18.929Z,24.95
2024-04-30T00:29:18.946Z,24.79
2024-04-30T00:30:19.043Z,24.79
2024-04-30T00:31:19.190Z,24.81
2024-04-30T00:32:19.324Z,24.82
2024-04-30T00:33:19.441Z,24.85
2024-04-30T00:34:19.490Z,24.88
2024-04-30T00:35:19.531Z,24.83
2024-04-30T00:36:19.666Z,24.76
2024-04-30T00:37:19.804Z,24.78
2024-04-30T00:38:19.888Z,24.75
2024-04-30T00:39:19.971Z,24.85
2024-04-30T00:40:20.120Z,24.84
2024-04-30T00:41:20.136Z,24.84
2024-04-30T00:42:20.249Z,24.79
2024-04-30T00:43:20.369Z,24.69
2024-04-30T00:44:20.491Z,24.63
2024-04-30T00:45:20.546Z,24.71
2024-04-30T00:46:20.679Z,24.69
2024-04-30T00:47:20.800Z,24.65
2024-04-30T00:48:21.789Z,24.63
2024-04-30T00:49:20.936Z,24.57
2024-04-30T00:50:20.998Z,24.50
2024-04-30T00:51:21.006Z,24.54
2024-04-30T00:52:21.100Z,24.54
2024-04-30T00:53:21.109Z,24.52
2024-04-30T00:54:21.155Z,24.52
2024-04-30T00:55:21.236Z,24.50
2024-04-30T00:56:21.304Z,24.51
2024-04-30T00:57:21.400Z,24.47
2024-04-30T00:58:21.572Z,24.51
2024-04-30T00:59:21.658Z,24.49
2024-04-30T01:00:21.697Z,24.48
2024-04-30T01:01:21.856Z,24.45
2024-04-30T01:02:21.931Z,24.42
2024-04-30T01:03:22.070Z,24.48
2024-04-30T01:04:22.130Z,24.54
2024-04-30T01:05:22.230Z,24.47
2024-04-30T01:06:22.312Z,24.42
2024-04-30T01:07:22.393Z,24.43
2024-04-30T01:08:22.552Z,24.43
2024-04-30T01:09:22.616Z,24.42
2024-04-30T01:10:22.757Z,24.44
2024-04-30T01:11:22.856Z,24.46
2024-04-30T01:12:22.969Z,24.43
2024-04-30T01:13:23.097Z,24.42
2024-04-30T01:14:23.151Z,24.43
2024-04-30T01:15:23.221Z,24.38
2024-04-30T01:16:23.363Z,24.35
2024-04-30T01:17:23.505Z,24.35
2024-04-30T01:18:24.006Z,24.36
2024-04-30T01:19:23.631Z,24.32
2024-04-30T01:20:23.617Z,24.32
2024-04-30T01:21:23.669Z,24.34
2024-04-30T01:22:23.746Z,24.38
2024-04-30T01:23:23.802Z,24.41
2024-04-30T01:24:23.814Z,24.35
2024-04-30T01:25:23.940Z,24.39
2024-04-30T01:26:24.092Z,24.40
2024-04-30T01:27:24.033Z,24.42
2024-04-30T01:28:24.045Z,24.45
2024-04-30T01:29:24.075Z,24.45
2024-04-30T01:30:24.114Z,24.45
2024-04-30T01:31:24.175Z,24.46
2024-04-30T01:32:24.247Z,24.49
2024-04-30T01:33:24.327Z,24.48
2024-04-30T01:34:24.370Z,24.48
2024-04-30T01:35:24.386Z,24.54
2024-04-30T01:36:24.496Z,24.53
2024-04-30T01:37:24.657Z,24.56
2024-04-30T01:38:24.747Z,24.59
2024-04-30T01:39:24.838Z,24.59
2024-04-30T01:40:24.917Z,24.59
2024-04-30T01:41:25.218Z,24.61
2024-04-30T01:42:25.114Z,24.61
2024-04-30T01:43:25.194Z,24.63
2024-04-30T01:44:25.296Z,24.63
2024-04-30T01:45:25.411Z,24.63
2024-04-30T01:46:25.549Z,24.66
2024-04-30T01:47:25.634Z,24.65
2024-04-30T01:48:25.813Z,24.65
2024-04-30T01:49:25.859Z,24.70
2024-04-30T01:50:25.951Z,24.73
2024-04-30T01:51:26.034Z,24.76
2024-04-30T01:52:26.219Z,24.78
2024-04-30T01:53:26.206Z,24.83
2024-04-30T01:54:26.318Z,24.86
2024-04-30T01:55:26.463Z,24.85
2024-04-30T01:56:26.539Z,24.83
2024-04-30T01:57:26.632Z,24.87
2024-04-30T01:58:26.771Z,24.89
2024-04-30T01:59:26.837Z,24.89
2024-04-30T02:00:26.931Z,24.89
2024-04-30T02:01:27.084Z,24.92
2024-04-30T02:02:27.143Z,24.95
2024-04-30T02:03:27.290Z,24.98
2024-04-30T02:04:28.806Z,25.06
2024-04-30T02:05:28.452Z,25.06
2024-04-30T02:06:27.299Z,25.08
2024-04-30T02:07:27.349Z,25.11
2024-04-30T02:08:27.318Z,25.20
2024-04-30T02:09:27.324Z,25.25
2024-04-30T02:10:27.393Z,25.30
2024-04-30T02:11:27.399Z,25.38
2024-04-30T02:12:27.356Z,25.51
2024-04-30T02:13:27.430Z,25.56
2024-04-30T02:14:27.430Z,25.62
2024-04-30T02:15:27.477Z,25.70
2024-04-30T02:16:27.777Z,25.70
2024-04-30T02:17:27.763Z,25.72
2024-04-30T02:18:27.835Z,25.81
2024-04-30T02:19:27.939Z,25.93
2024-04-30T02:20:27.992Z,26.04
2024-04-30T02:21:28.137Z,26.10
2024-04-30T02:22:28.231Z,26.15
2024-04-30T02:23:28.322Z,26.19
2024-04-30T02:24:28.415Z,26.38
2024-04-30T02:25:28.617Z,26.38
2024-04-30T02:26:28.627Z,26.44
2024-04-30T02:27:28.711Z,26.60
2024-04-30T02:28:28.897Z,26.64
2024-04-30T02:29:28.901Z,26.71
2024-04-30T02:30:29.054Z,26.82
2024-04-30T02:31:29.198Z,26.91
2024-04-30T02:32:29.250Z,26.89
2024-04-30T02:33:29.365Z,26.98
2024-04-30T02:34:29.476Z,27.11
2024-04-30T02:35:29.517Z,27.08
2024-04-30T02:36:29.621Z,27.21
2024-04-30T02:37:29.793Z,27.20
2024-04-30T02:38:29.836Z,27.23
2024-04-30T02:39:29.929Z,27.32
2024-04-30T02:40:30.024Z,27.39
2024-04-30T02:41:30.116Z,27.42
2024-04-30T02:42:30.222Z,27.51
2024-04-30T02:43:30.392Z,27.57
2024-04-30T02:44:30.414Z,27.62
2024-04-30T02:45:30.470Z,27.64
2024-04-30T02:46:30.661Z,27.65
2024-04-30T02:47:30.743Z,27.64
2024-04-30T02:48:30.748Z,27.66
2024-04-30T02:49:30.910Z,27.65
2024-04-30T02:50:30.885Z,27.69
2024-04-30T02:51:30.956Z,27.70
2024-04-30T02:52:31.190Z,27.71
2024-04-30T02:53:31.097Z,27.64
2024-04-30T02:54:31.169Z,27.63
2024-04-30T02:55:31.329Z,27.56
2024-04-30T02:56:31.303Z,27.60
2024-04-30T02:57:31.373Z,27.62
2024-04-30T02:58:31.594Z,27.63
2024-04-30T02:59:31.528Z,27.67
2024-04-30T03:00:31.692Z,27.64
2024-04-30T03:01:31.696Z,27.64
2024-04-30T03:02:31.733Z,27.59
2024-04-30T03:03:31.851Z,27.64
2024-04-30T03:04:31.901Z,27.61
2024-04-30T03:05:31.903Z,27.57
2024-04-30T03:06:31.984Z,27.57
2024-04-30T03:07:32.192Z,27.57
2024-04-30T03:08:32.133Z,27.57
2024-04-30T03:09:32.199Z,27.56
2024-04-30T03:10:32.346Z,27.55
2024-04-30T03:11:32.432Z,27.54
2024-04-30T03:12:32.349Z,27.59
2024-04-30T03:13:32.475Z,27.60
2024-04-30T03:14:32.538Z,27.65
2024-04-30T03:15:32.582Z,27.68
2024-04-30T03:16:32.792Z,27.71
2024-04-30T03:17:32.785Z,27.69
2024-04-30T03:18:32.828Z,27.74
2024-04-30T03:19:32.945Z,27.75
2024-04-30T03:20:32.954Z,27.81
2024-04-30T03:21:33.012Z,27.87
2024-04-30T03:22:33.133Z,27.92
2024-04-30T03:23:33.166Z,27.94
2024-04-30T03:24:33.311Z,27.98
2024-04-30T03:25:33.370Z,28.06
2024-04-30T03:26:33.387Z,28.11
2024-04-30T03:27:33.442Z,28.13
2024-04-30T03:28:33.565Z,28.13
2024-04-30T03:29:33.574Z,28.17
2024-04-30T03:30:33.642Z,28.17
2024-04-30T03:31:34.017Z,28.19
2024-04-30T03:32:33.866Z,28.20
2024-04-30T03:33:33.917Z,28.23
2024-04-30T03:34:33.956Z,28.31
2024-04-30T03:35:33.980Z,28.33
2024-04-30T03:36:34.045Z,28.37
2024-04-30T03:37:34.353Z,28.44
2024-04-30T03:38:34.200Z,28.45
2024-04-30T03:39:34.239Z,28.46
2024-04-30T03:40:34.411Z,28.52
2024-04-30T03:41:34.392Z,28.56
2024-04-30T03:42:34.451Z,28.65
2024-04-30T03:43:34.594Z,28.63
2024-04-30T03:44:34.584Z,28.69
2024-04-30T03:45:34.650Z,28.71
2024-04-30T03:46:34.910Z,28.72
2024-04-30T03:47:34.863Z,28.73
2024-04-30T03:48:34.920Z,28.77
2024-04-30T03:49:35.102Z,28.81
2024-04-30T03:50:35.033Z,28.83
2024-04-30T03:51:35.146Z,28.83
2024-04-30T03:52:35.270Z,28.83
2024-04-30T03:53:35.305Z,28.84
2024-04-30T03:54:35.362Z,28.88
2024-04-30T03:55:35.503Z,28.90
2024-04-30T03:56:35.508Z,28.91
2024-04-30T03:57:35.614Z,28.92
2024-04-30T03:58:35.758Z,28.93
2024-04-30T03:59:35.800Z,28.96
2024-04-30T04:00:35.884Z,28.99
2024-04-30T04:01:35.980Z,28.99
2024-04-30T04:02:36.114Z,28.98
2024-04-30T04:03:36.172Z,28.99
2024-04-30T04:04:36.287Z,28.96
2024-04-30T04:05:36.326Z,28.98
2024-04-30T04:06:36.392Z,28.98
2024-04-30T04:07:36.575Z,28.98
2024-04-30T04:08:36.592Z,28.99
2024-04-30T04:09:36.665Z,29.01
2024-04-30T04:10:36.868Z,29.02
2024-04-30T04:11:36.908Z,29.00
2024-04-30T04:12:36.947Z,28.92
2024-04-30T04:13:37.073Z,28.96
2024-04-30T04:14:37.149Z,28.97
2024-04-30T04:15:37.231Z,29.01
2024-04-30T04:16:37.416Z,29.00
2024-04-30T04:17:37.480Z,29.01
2024-04-30T04:18:37.580Z,29.07
2024-04-30T04:19:37.730Z,29.11
2024-04-30T04:20:37.719Z,29.12
2024-04-30T04:21:37.781Z,29.10
2024-04-30T04:22:37.943Z,29.10
2024-04-30T04:23:37.992Z,29.10
2024-04-30T04:24:38.087Z,29.11
2024-04-30T04:25:38.187Z,29.08
2024-04-30T04:26:45.362Z,29.12
2024-04-30T04:27:45.330Z,29.12
2024-04-30T04:28:45.341Z,29.11
2024-04-30T04:29:45.377Z,29.07
2024-04-30T04:30:45.392Z,29.05
2024-04-30T04:31:52.628Z,29.11
2024-04-30T04:32:52.620Z,29.10
2024-04-30T04:33:52.572Z,29.11
2024-04-30T04:34:52.562Z,29.11
2024-04-30T04:35:52.590Z,29.11
2024-04-30T04:36:52.549Z,29.13
2024-04-30T04:37:52.587Z,29.15
2024-04-30T04:38:52.567Z,29.14
2024-04-30T04:39:52.589Z,29.18
2024-04-30T04:40:52.582Z,29.18
2024-04-30T04:41:52.561Z,29.24
2024-04-30T04:42:52.569Z,29.26
2024-04-30T04:43:52.591Z,29.29
2024-04-30T04:44:52.582Z,29.31
2024-04-30T04:45:52.574Z,29.33
2024-04-30T04:46:52.587Z,29.34
2024-04-30T04:47:52.683Z,29.33
2024-04-30T04:48:52.589Z,29.34
2024-04-30T04:49:52.601Z,29.33
2024-04-30T04:50:52.580Z,29.32
2024-04-30T04:51:52.558Z,29.34
2024-04-30T04:52:52.602Z,29.31
2024-04-30T04:53:52.604Z,29.29
2024-04-30T04:54:52.582Z,29.31
2024-04-30T04:55:52.595Z,29.30
2024-04-30T04:56:52.587Z,29.28
2024-04-30T04:57:52.600Z,29.31
2024-04-30T04:58:52.607Z,29.28
2024-04-30T04:59:52.613Z,29.28
2024-04-30T05:00:52.743Z,29.28
2024-04-30T05:01:52.787Z,29.27
2024-04-30T05:02:52.656Z,29.28
2024-04-30T05:03:52.658Z,29.25
2024-04-30T05:04:52.647Z,29.24
2024-04-30T05:05:52.591Z,29.21
2024-04-30T05:06:54.575Z,29.17
2024-04-30T05:07:52.733Z,29.14
2024-04-30T05:08:52.783Z,29.12
2024-04-30T05:09:52.811Z,29.11
2024-04-30T05:10:52.845Z,29.12
2024-04-30T05:11:52.838Z,29.09
2024-04-30T05:12:52.838Z,29.14
2024-04-30T05:13:52.879Z,29.10
2024-04-30T05:14:55.655Z,29.13
2024-04-30T05:15:52.924Z,29.12
2024-04-30T05:16:52.980Z,29.10
2024-04-30T05:18:19.534Z,29.15
2024-04-30T05:19:19.562Z,29.10
2024-04-30T05:20:19.522Z,29.12
2024-04-30T05:21:19.520Z,29.09
2024-04-30T05:22:19.565Z,29.05
2024-04-30T05:23:19.515Z,29.04
2024-04-30T05:24:19.553Z,29.05
2024-04-30T05:25:19.537Z,29.04
2024-04-30T05:26:19.516Z,29.05
2024-04-30T05:27:19.512Z,29.09
2024-04-30T05:28:19.568Z,29.06
2024-04-30T05:29:19.523Z,29.09
2024-04-30T05:30:19.517Z,29.09
2024-04-30T05:31:19.578Z,29.10
2024-04-30T05:32:19.502Z,29.12
2024-04-30T05:33:19.601Z,29.10
2024-04-30T05:34:19.576Z,29.12
2024-04-30T05:35:19.503Z,29.09
2024-04-30T05:36:19.525Z,29.12
2024-04-30T05:37:19.617Z,29.10
2024-04-30T05:38:19.597Z,29.09
2024-04-30T05:39:19.567Z,29.15
2024-04-30T05:40:19.650Z,29.18
2024-04-30T05:41:19.573Z,29.19
2024-04-30T05:42:19.560Z,29.23
2024-04-30T05:43:19.718Z,29.27
2024-04-30T05:44:19.550Z,29.29
2024-04-30T05:45:19.582Z,29.31
2024-04-30T05:46:19.716Z,29.38
2024-04-30T05:47:19.575Z,29.39
2024-04-30T05:48:19.617Z,29.31
2024-04-30T05:49:19.605Z,29.28
2024-04-30T05:50:19.587Z,29.29
2024-04-30T05:51:19.578Z,29.36
2024-04-30T05:52:19.609Z,30.07
2024-04-30T05:53:19.585Z,30.00
2024-04-30T05:54:19.661Z,29.97
2024-04-30T05:55:19.751Z,30.10
2024-04-30T05:56:19.815Z,30.27
2024-04-30T05:57:19.879Z,30.47
2024-04-30T05:58:19.989Z,30.66
2024-04-30T05:59:20.092Z,30.77
2024-04-30T06:00:20.135Z,30.84
2024-04-30T06:01:20.302Z,30.94
2024-04-30T06:02:20.283Z,30.84
2024-04-30T06:03:20.421Z,30.78
2024-04-30T06:04:20.571Z,31.07
2024-04-30T06:05:20.691Z,31.22
2024-04-30T06:06:20.666Z,31.15
2024-04-30T06:07:20.748Z,31.35
2024-04-30T06:08:20.789Z,31.23
2024-04-30T06:09:20.883Z,31.26
2024-04-30T06:10:21.016Z,31.32
2024-04-30T06:11:21.144Z,31.22
2024-04-30T06:12:21.138Z,31.22
2024-04-30T06:13:21.266Z,31.39
2024-04-30T06:14:23.997Z,31.65
2024-04-30T06:15:21.500Z,31.21
2024-04-30T06:16:21.345Z,31.65
2024-04-30T06:17:21.355Z,31.39
2024-04-30T06:18:21.402Z,31.45
2024-04-30T06:19:21.373Z,31.40
2024-04-30T06:20:21.307Z,31.35
2024-04-30T06:21:30.354Z,31.21
2024-04-30T06:22:22.377Z,31.10
2024-04-30T06:23:21.329Z,30.97
2024-04-30T06:24:21.313Z,30.87
2024-04-30T06:25:21.347Z,30.98
2024-04-30T06:26:21.310Z,31.07
2024-04-30T06:27:21.351Z,30.99
2024-04-30T06:28:21.364Z,30.90
2024-04-30T06:29:21.378Z,30.85
2024-04-30T06:30:21.326Z,30.75
2024-04-30T06:31:21.416Z,30.74
2024-04-30T06:32:21.322Z,30.82
2024-04-30T06:33:21.463Z,30.86
2024-04-30T06:34:21.460Z,30.88
2024-04-30T06:35:21.506Z,30.87
2024-04-30T06:36:21.612Z,30.83
2024-04-30T06:37:21.707Z,30.88
2024-04-30T06:38:21.737Z,30.77
2024-04-30T06:39:21.842Z,30.72
2024-04-30T06:40:23.389Z,30.61
2024-04-30T06:41:21.902Z,30.50
2024-04-30T06:42:21.904Z,30.57
2024-04-30T06:43:21.941Z,30.71
2024-04-30T06:44:21.971Z,30.43
2024-04-30T06:45:22.023Z,30.52
2024-04-30T06:46:21.953Z,30.93
2024-04-30T06:47:22.010Z,31.10
2024-04-30T06:48:22.002Z,31.16
2024-04-30T06:49:24.124Z,31.29
2024-04-30T06:50:21.946Z,31.17
2024-04-30T06:51:21.966Z,31.16
2024-04-30T06:52:21.958Z,31.39
2024-04-30T06:53:21.931Z,31.49
2024-04-30T06:54:21.975Z,31.53
2024-04-30T06:55:21.997Z,31.54
2024-04-30T06:56:21.958Z,31.56
2024-04-30T06:57:22.010Z,31.46
2024-04-30T06:58:21.972Z,31.75
2024-04-30T06:59:21.972Z,32.01
2024-04-30T07:00:21.970Z,31.95
2024-04-30T07:01:22.021Z,32.01
2024-04-30T07:02:21.967Z,32.11
2024-04-30T07:03:21.941Z,32.22
2024-04-30T07:04:22.027Z,32.29
2024-04-30T07:05:22.020Z,32.39
2024-04-30T07:06:21.963Z,32.42
2024-04-30T07:07:21.977Z,32.51
2024-04-30T07:08:21.969Z,32.60
2024-04-30T07:09:21.986Z,32.69
2024-04-30T07:10:22.016Z,32.75
2024-04-30T07:11:21.990Z,32.95
2024-04-30T07:12:21.969Z,32.95
2024-04-30T07:13:21.990Z,33.13
2024-04-30T07:14:22.016Z,33.18
2024-04-30T07:15:21.970Z,33.31
2024-04-30T07:16:22.006Z,33.30
2024-04-30T07:17:22.050Z,33.48
2024-04-30T07:18:22.028Z,33.60
2024-04-30T07:19:22.024Z,33.68
2024-04-30T07:20:21.980Z,33.83
2024-04-30T07:21:21.962Z,34.05
2024-04-30T07:22:22.036Z,34.05
2024-04-30T07:23:21.975Z,34.22
2024-04-30T07:24:22.038Z,34.40
2024-04-30T07:25:22.013Z,34.33
2024-04-30T07:26:21.992Z,34.41
2024-04-30T07:27:22.084Z,34.52
2024-04-30T07:28:22.202Z,34.56
2024-04-30T07:29:22.221Z,34.74
2024-04-30T07:30:22.264Z,34.76
2024-04-30T07:31:22.408Z,34.84
2024-04-30T07:32:22.507Z,34.90
2024-04-30T07:33:22.586Z,34.96
2024-04-30T07:34:22.818Z,35.02
2024-04-30T07:35:22.716Z,35.17
2024-04-30T07:36:22.779Z,35.20
2024-04-30T07:37:22.908Z,35.30
2024-04-30T07:38:22.879Z,35.31
2024-04-30T07:39:22.983Z,35.43
2024-04-30T07:40:23.087Z,35.68
2024-04-30T07:41:23.105Z,35.70
2024-04-30T07:42:23.143Z,36.05
2024-04-30T07:43:23.263Z,35.88
2024-04-30T07:44:23.257Z,35.84
2024-04-30T07:45:23.319Z,35.89
2024-04-30T07:46:23.435Z,35.86
2024-04-30T07:47:23.582Z,35.79
2024-04-30T07:48:23.746Z,35.75
2024-04-30T07:49:23.644Z,35.67
2024-04-30T07:50:23.664Z,35.61
2024-04-30T07:51:23.713Z,35.55
2024-04-30T07:52:23.833Z,35.51
2024-04-30T07:53:23.863Z,35.47
2024-04-30T07:54:23.990Z,35.44
2024-04-30T07:55:24.050Z,35.44
2024-04-30T07:56:24.106Z,35.44
2024-04-30T07:57:24.201Z,35.44
2024-04-30T07:58:24.293Z,35.43
2024-04-30T07:59:24.349Z,35.41
2024-04-30T08:00:24.439Z,35.35
2024-04-30T08:01:24.609Z,35.38
2024-04-30T08:02:24.709Z,35.33
2024-04-30T08:03:24.782Z,35.32
2024-04-30T08:04:24.840Z,35.27
2024-04-30T08:05:24.891Z,35.26
2024-04-30T08:06:25.004Z,35.22
2024-04-30T08:07:25.090Z,35.19
2024-04-30T08:08:25.179Z,35.15
2024-04-30T08:09:25.268Z,35.12
2024-04-30T08:10:25.365Z,35.12
2024-04-30T08:11:25.433Z,35.05
2024-04-30T08:12:25.542Z,35.05
2024-04-30T08:13:25.667Z,35.04
2024-04-30T08:14:25.778Z,34.96
2024-04-30T08:15:25.837Z,34.95
2024-04-30T08:16:25.978Z,34.89
2024-04-30T08:17:26.128Z,34.86
2024-04-30T08:18:26.121Z,34.83
2024-04-30T08:19:26.261Z,34.84
2024-04-30T08:20:26.321Z,34.80
2024-04-30T08:21:26.482Z,34.77
2024-04-30T08:22:26.580Z,34.75
2024-04-30T08:23:26.594Z,34.72
2024-04-30T08:24:26.745Z,34.68
2024-04-30T08:25:26.814Z,34.60
2024-04-30T08:26:26.912Z,34.57
2024-04-30T08:27:27.423Z,34.55
2024-04-30T08:28:27.113Z,34.51
2024-04-30T08:29:27.230Z,34.45
2024-04-30T08:30:27.305Z,34.41
2024-04-30T08:31:27.447Z,34.36
2024-04-30T08:32:27.599Z,34.33
2024-04-30T08:33:27.632Z,34.27
2024-04-30T08:34:27.726Z,34.25
2024-04-30T08:35:27.806Z,34.21
2024-04-30T08:36:30.367Z,34.21
2024-04-30T08:38:27.942Z,34.13
2024-04-30T08:39:27.981Z,34.09
2024-04-30T08:40:27.959Z,33.54
2024-04-30T08:41:27.992Z,32.81
2024-04-30T08:42:27.942Z,32.67
2024-04-30T08:43:28.004Z,32.61
2024-04-30T08:44:27.926Z,31.10
2024-04-30T08:45:27.907Z,30.26
2024-04-30T08:46:27.980Z,29.99
2024-04-30T08:47:28.018Z,29.44
2024-04-30T08:48:27.914Z,28.84
2024-04-30T08:49:33.967Z,29.60
2024-04-30T08:50:29.036Z,29.33
2024-04-30T08:51:27.920Z,29.12
2024-04-30T08:52:28.002Z,29.26
2024-04-30T08:53:27.934Z,29.08
2024-04-30T08:54:27.929Z,29.58
2024-04-30T08:55:27.964Z,29.68
2024-04-30T08:56:27.933Z,29.32
2024-04-30T08:57:27.929Z,29.60
2024-04-30T08:58:27.995Z,29.66
2024-04-30T08:59:27.965Z,29.70
2024-04-30T09:00:27.961Z,29.72
2024-04-30T09:01:27.958Z,29.80
2024-04-30T09:02:27.971Z,29.83
2024-04-30T09:03:28.009Z,29.87
2024-04-30T09:04:28.053Z,29.95
2024-04-30T09:05:27.995Z,30.02
2024-04-30T09:06:28.106Z,30.00
2024-04-30T09:07:28.208Z,30.08
2024-04-30T09:08:28.218Z,30.10
2024-04-30T09:09:28.290Z,30.16
2024-04-30T09:10:28.369Z,30.25
2024-04-30T09:11:28.497Z,30.29
2024-04-30T09:12:28.473Z,30.38
2024-04-30T09:13:28.602Z,30.40
2024-04-30T09:14:28.635Z,30.50
2024-04-30T09:15:28.682Z,30.47
2024-04-30T09:16:28.734Z,30.50
2024-04-30T09:17:29.042Z,30.57
2024-04-30T09:18:28.956Z,30.60
2024-04-30T09:19:28.967Z,30.61
2024-04-30T09:20:28.972Z,30.65
2024-04-30T09:21:29.066Z,30.64
2024-04-30T09:22:29.215Z,30.63
2024-04-30T09:23:29.262Z,30.64
2024-04-30T09:24:29.286Z,30.60
2024-04-30T09:25:29.422Z,30.57
2024-04-30T09:26:29.431Z,30.62
2024-04-30T09:27:29.509Z,30.56
2024-04-30T09:28:29.598Z,30.60
2024-04-30T09:29:29.697Z,30.60
2024-04-30T09:30:29.772Z,30.67
2024-04-30T09:31:29.842Z,30.70
2024-04-30T09:32:30.033Z,30.69
2024-04-30T09:33:30.250Z,30.74
2024-04-30T09:34:30.151Z,30.70
2024-04-30T09:35:30.244Z,30.66
2024-04-30T09:36:30.344Z,30.58
2024-04-30T09:37:30.496Z,30.62
2024-04-30T09:38:30.576Z,30.67
2024-04-30T09:39:30.680Z,30.79
2024-04-30T09:40:30.873Z,30.73
2024-04-30T09:41:30.871Z,29.88
2024-04-30T09:42:30.973Z,29.69
2024-04-30T09:43:31.178Z,29.45
2024-04-30T09:44:31.240Z,29.36
2024-04-30T09:45:31.292Z,29.41
2024-04-30T09:46:31.539Z,29.44
2024-04-30T09:47:31.591Z,29.58
2024-04-30T09:48:31.658Z,30.01
2024-04-30T09:49:31.824Z,30.32
2024-04-30T09:50:31.892Z,30.63
2024-04-30T09:51:31.992Z,30.80
2024-04-30T09:52:32.181Z,30.92
2024-04-30T09:53:32.266Z,31.08
2024-04-30T09:54:32.387Z,31.20
2024-04-30T09:55:32.505Z,31.18
2024-04-30T09:56:32.562Z,31.29
2024-04-30T09:57:32.694Z,31.28
2024-04-30T09:58:32.899Z,31.42
2024-04-30T09:59:33.053Z,31.56
2024-04-30T10:00:33.239Z,31.73
2024-04-30T10:01:33.270Z,31.82
2024-04-30T10:02:33.331Z,31.94
2024-04-30T10:03:33.428Z,31.96
2024-04-30T10:04:33.636Z,31.97
2024-04-30T10:05:33.642Z,32.31
2024-04-30T10:06:33.791Z,32.60
2024-04-30T10:07:33.971Z,32.74
2024-04-30T10:08:33.992Z,32.76
2024-04-30T10:09:34.145Z,32.84
2024-04-30T10:10:34.422Z,32.89
2024-04-30T10:11:34.393Z,33.07
2024-04-30T10:12:34.443Z,33.09
2024-04-30T10:13:34.561Z,33.01
2024-04-30T10:14:34.690Z,33.06
2024-04-30T10:15:34.756Z,33.19
2024-04-30T10:16:34.933Z,33.24
2024-04-30T10:17:35.093Z,33.49
2024-04-30T10:18:35.135Z,33.72
2024-04-30T10:19:35.261Z,33.98
2024-04-30T10:20:35.302Z,34.03
2024-04-30T10:21:35.399Z,34.21
2024-04-30T10:22:35.579Z,34.29
2024-04-30T10:23:35.599Z,34.36
2024-04-30T10:24:35.735Z,34.36
2024-04-30T10:25:35.890Z,34.38
2024-04-30T10:26:35.891Z,34.40
2024-04-30T10:27:36.007Z,34.55
2024-04-30T10:28:36.153Z,34.53
2024-04-30T10:29:36.197Z,34.54
2024-04-30T10:30:36.341Z,34.59
2024-04-30T10:31:36.407Z,34.61
2024-04-30T10:32:36.506Z,34.53
2024-04-30T10:33:36.631Z,34.53
2024-04-30T10:34:36.693Z,34.63
2024-04-30T10:35:36.753Z,34.62
2024-04-30T10:36:36.838Z,34.70
2024-04-30T10:37:37.123Z,34.75
2024-04-30T10:38:37.024Z,34.70
2024-04-30T10:39:37.124Z,34.64
2024-04-30T10:40:37.227Z,34.48
2024-04-30T10:41:37.279Z,34.37
2024-04-30T10:42:37.443Z,34.30
2024-04-30T10:43:37.491Z,34.23
2024-04-30T10:44:37.550Z,34.14
2024-04-30T10:45:37.672Z,34.05
2024-04-30T10:46:37.823Z,34.00
2024-04-30T10:47:37.966Z,33.96
2024-04-30T10:48:38.064Z,33.91
2024-04-30T10:49:38.230Z,33.90
2024-04-30T10:50:38.256Z,33.91
2024-04-30T10:51:38.370Z,33.87
2024-04-30T10:52:38.522Z,33.87
2024-04-30T10:53:38.601Z,33.85
2024-04-30T10:54:38.718Z,33.84
2024-04-30T10:55:38.893Z,33.83
2024-04-30T10:56:39.028Z,33.81
2024-04-30T10:57:39.143Z,33.80
2024-04-30T10:58:39.262Z,33.77
2024-04-30T10:59:39.357Z,33.74
2024-04-30T11:00:39.506Z,33.71
2024-04-30T11:01:39.675Z,33.72
2024-04-30T11:02:39.774Z,33.70
2024-04-30T11:03:39.834Z,33.65
2024-04-30T11:04:40.091Z,33.61
2024-04-30T11:05:40.817Z,33.57
2024-04-30T11:06:40.108Z,33.55
2024-04-30T11:07:40.272Z,33.53
2024-04-30T11:08:40.162Z,33.48
2024-04-30T11:09:40.200Z,33.46
2024-04-30T11:10:40.266Z,33.42
2024-04-30T11:11:40.291Z,33.42
2024-04-30T11:12:40.302Z,33.41
2024-04-30T11:13:40.380Z,33.41
2024-04-30T11:14:40.433Z,33.39
2024-04-30T11:15:40.514Z,33.37
2024-04-30T11:16:40.676Z,33.38
2024-04-30T11:17:40.792Z,33.37
2024-04-30T11:18:40.891Z,33.35
2024-04-30T11:19:41.053Z,33.34
2024-04-30T11:20:41.092Z,33.31
2024-04-30T11:21:41.190Z,33.28
2024-04-30T11:22:42.342Z,33.27
2024-04-30T11:23:41.435Z,33.23
2024-04-30T11:24:41.554Z,33.21
2024-04-30T11:25:41.710Z,33.18
2024-04-30T11:26:41.762Z,33.20
2024-04-30T11:27:41.844Z,33.16
2024-04-30T11:28:46.536Z,33.17
2024-04-30T11:29:43.080Z,33.16
2024-04-30T11:30:42.003Z,33.13
2024-04-30T11:31:42.046Z,33.10
2024-04-30T11:32:42.096Z,33.10
2024-04-30T11:33:42.050Z,33.08
2024-04-30T11:34:42.058Z,33.05
2024-04-30T11:35:41.988Z,33.04
2024-04-30T11:36:42.010Z,33.01
2024-04-30T11:37:42.215Z,32.98
2024-04-30T11:38:42.053Z,32.97
2024-04-30T11:39:42.082Z,32.99
2024-04-30T11:40:42.124Z,32.97
2024-04-30T11:41:48.714Z,32.95
2024-04-30T11:42:45.176Z,32.92
2024-04-30T11:43:42.063Z,32.89
2024-04-30T11:44:42.011Z,32.86
2024-04-30T11:45:42.019Z,32.84
2024-04-30T11:46:42.134Z,32.85
2024-04-30T11:47:42.199Z,32.86
2024-04-30T11:48:42.104Z,32.82
2024-04-30T11:49:42.222Z,32.80
2024-04-30T11:50:42.025Z,32.76
2024-04-30T11:51:42.040Z,32.77
2024-04-30T11:52:42.260Z,32.77
2024-04-30T11:53:42.034Z,32.72
2024-04-30T11:54:42.033Z,32.76
2024-04-30T11:55:42.138Z,32.70
2024-04-30T11:56:42.086Z,32.69
2024-04-30T11:57:42.038Z,32.69
2024-04-30T11:58:42.097Z,32.65
2024-04-30T11:59:42.140Z,32.75
2024-04-30T12:00:42.075Z,32.82
2024-04-30T12:01:42.072Z,32.84
2024-04-30T12:02:42.109Z,32.92
2024-04-30T12:03:42.059Z,33.06
2024-04-30T12:04:42.142Z,33.15
2024-04-30T12:05:42.176Z,33.09
2024-04-30T12:06:42.052Z,33.10
2024-04-30T12:07:42.150Z,33.13
2024-04-30T12:08:42.028Z,33.15
2024-04-30T12:09:42.068Z,33.09
2024-04-30T12:10:42.151Z,33.08
2024-04-30T12:11:42.204Z,33.10
2024-04-30T12:12:42.299Z,33.05
2024-04-30T12:13:42.401Z,33.05
2024-04-30T12:14:42.514Z,33.04
2024-04-30T12:15:42.616Z,32.98
2024-04-30T12:16:46.903Z,32.97
2024-04-30T12:17:43.821Z,32.96
2024-04-30T12:18:42.740Z,32.94
2024-04-30T12:19:42.903Z,32.92
2024-04-30T12:20:42.773Z,32.86
2024-04-30T12:21:42.753Z,32.85
2024-04-30T12:22:42.827Z,32.83
2024-04-30T12:23:44.096Z,32.78
2024-04-30T12:24:42.778Z,32.76
2024-04-30T12:25:42.928Z,32.75
2024-04-30T12:26:42.790Z,32.75
2024-04-30T12:27:42.823Z,32.71
2024-04-30T12:28:42.948Z,32.70
2024-04-30T12:29:43.285Z,32.65
2024-04-30T12:30:42.878Z,32.63
2024-04-30T12:31:43.071Z,32.62
2024-04-30T12:32:43.054Z,32.58
2024-04-30T12:33:43.360Z,32.59
2024-04-30T12:34:43.380Z,32.52
2024-04-30T12:35:43.364Z,32.56
2024-04-30T12:36:43.699Z,32.49
2024-04-30T12:37:43.589Z,32.48
2024-04-30T12:38:43.716Z,32.47
2024-04-30T12:39:43.834Z,32.45
2024-04-30T12:40:44.001Z,32.42
2024-04-30T12:41:44.059Z,32.40
2024-04-30T12:42:44.150Z,32.37
2024-04-30T12:43:44.348Z,32.36
2024-04-30T12:44:44.388Z,32.32
2024-04-30T12:45:44.491Z,32.32
2024-04-30T12:46:44.652Z,32.29
2024-04-30T12:47:44.768Z,32.30
2024-04-30T12:48:44.874Z,32.26
2024-04-30T12:49:45.001Z,32.25
2024-04-30T12:50:45.037Z,32.23
2024-04-30T12:51:45.194Z,32.21
2024-04-30T12:52:45.405Z,32.19
2024-04-30T12:53:45.394Z,32.18
2024-04-30T12:54:45.561Z,32.16